FMEEFIMR

Guest
Details From FMEE - St Denis Gillot
To FIMR - Plaine Corail
Flight Number -
Tags Generated
Created
Modified
Stats Distance 447 nm / 828 km
Max Altitude 0 ft / 0 m
Waypoints 3
Social Downloads 0
Likes 0
Share VATSIM

Download

Looking for another format? Having issues loading an existing format? Contact us
Advertisement - Login to hide

Notes

Generated

Route

FMEE PLS15 FIMR

ID Type Via Altitude Latitude Longitude Leg Dist Tot Dist Heading (true) Name
O FMEE APT - 0 ft / 0 m -20.88418˚ 55.50412˚ - 0 nm - -
PLS15 FIX - 0 ft / 0 m -20.54160˚ 57.89548˚ 135 nm 135 nm 82° / 81° -
O FIMR APT - 0 ft / 0 m -19.75607˚ 63.35507˚ 311 nm 447 nm 82° / 80° PLAINE CORAIL

Altitude Profile

Advertisement - Login to hide

Weather


0- 5 10 15 20 25 30 35+ Temperature / ° C

Clouds and Precipitation
Forecast for 2018-05-27 00:00 UTC. Updated an hour ago

Ground ~20,000 ft ~40,000 ft Winds

FMEE

Details ICAO FMEE (RUN)
Name St Denis Gillot
Region Comoros, Mayotte, Réunion and Madagascar
Timezone Indian/Reunion (UTC+4.0)
Stats Elevation 66 ft / 20 m (AMSL)
Location -20.889313° 55.517752°
Runways 2
Magnetic Variation 18.965° W

METAR

FMEE 270000Z AUTO VRB02KT 9999 FEW058 SCT074 BKN088 22/15 Q1017 TEMPO SHRA

Decode

TAF

TAF FMEE 262300Z 2700/2806 16008KT 9999 FEW030 SCT050 PROB30 TEMPO 2700/2706 SHRA BECMG 2704/2706 08012KT TEMPO 2711/2716 SHRA BKN020 BECMG 2713/2715 16005KT

Decode

Departure Runways

ID Width Length Bearing (true) Bearing (mag) Surface Threshold Offset Overrun Length
12 148 ft / 45 m 10,581 ft / 3,225 m 102.26° 121.23° Asphalt 397 ft / 121 m 148 ft / 45 m
14 148 ft / 45 m 8,842 ft / 2,695 m 116.55° 135.52° Asphalt 338 ft / 103 m 98 ft / 30 m
30 148 ft / 45 m 10,581 ft / 3,225 m 282.25° 301.22° Asphalt 0 ft / 0 m 0 ft / 0 m
32 148 ft / 45 m 8,842 ft / 2,695 m 296.54° 315.51° Asphalt 1,175 ft / 358 m 377 ft / 115 m

FIMR

Details ICAO FIMR (RRG)
Name PLAINE CORAIL
Region Mauritius
Timezone Indian/Mauritius (UTC+4.0)
Stats Elevation 95 ft / 29 m (AMSL)
Location -19.757658° 63.360982°
Runways 1
Magnetic Variation 17.096° W

METAR

FIMR 270000Z 07010KT 9999 FEW018 24/20 Q1018

Decode

TAF

TAF FIMR 262340Z 2700/2718 06010G20KT 9999 SCT018

Decode

Destination Runways

ID Width Length Bearing (true) Bearing (mag) Surface Threshold Offset Overrun Length
12 98 ft / 30 m 4,222 ft / 1,287 m 105.95° 123.05° Asphalt 440 ft / 134 m 98 ft / 30 m
30 98 ft / 30 m 4,222 ft / 1,287 m 285.94° 303.04° Asphalt 240 ft / 73 m 98 ft / 30 m

Popular Alternatives